sensor_id;sensor_type;location;lat;lon;timestamp;pressure;altitude;pressure_sealevel;temperature;humidity
31681;BME280;18281;51.364;9.566;2023-05-24T00:01:46;100568.94;;;5.77;100.00
31681;BME280;18281;51.364;9.566;2023-05-24T00:04:12;100572.28;;;5.82;100.00
31681;BME280;18281;51.364;9.566;2023-05-24T00:06:39;100571.59;;;5.74;100.00
31681;BME280;18281;51.364;9.566;2023-05-24T00:09:06;100572.66;;;5.67;100.00
31681;BME280;18281;51.364;9.566;2023-05-24T00:11:32;100565.97;;;5.56;100.00
31681;BME280;18281;51.364;9.566;2023-05-24T00:13:57;100575.00;;;5.43;100.00
31681;BME280;18281;51.364;9.566;2023-05-24T00:16:23;100572.06;;;5.57;100.00
31681;BME280;18281;51.364;9.566;2023-05-24T00:18:48;100576.69;;;5.08;100.00
31681;BME280;18281;51.364;9.566;2023-05-24T00:21:14;100587.00;;;5.13;100.00
31681;BME280;18281;51.364;9.566;2023-05-24T00:23:40;100587.91;;;5.10;100.00
31681;BME280;18281;51.364;9.566;2023-05-24T00:26:07;100584.31;;;4.78;100.00
31681;BME280;18281;51.364;9.566;2023-05-24T00:28:33;100586.41;;;5.00;100.00
31681;BME280;18281;51.364;9.566;2023-05-24T00:30:59;100580.78;;;5.18;100.00
31681;BME280;18281;51.364;9.566;2023-05-24T00:33:25;100579.66;;;5.29;100.00
31681;BME280;18281;51.364;9.566;2023-05-24T00:35:52;100583.69;;;5.06;100.00
31681;BME280;18281;51.364;9.566;2023-05-24T00:38:21;100575.97;;;5.01;100.00
31681;BME280;18281;51.364;9.566;2023-05-24T00:40:46;100588.66;;;4.76;100.00
31681;BME280;18281;51.364;9.566;2023-05-24T00:43:13;100579.66;;;4.93;100.00
31681;BME280;18281;51.364;9.566;2023-05-24T00:45:38;100578.53;;;5.03;100.00
31681;BME280;18281;51.364;9.566;2023-05-24T00:48:04;100579.97;;;4.77;100.00
31681;BME280;18281;51.364;9.566;2023-05-24T00:50:29;100575.78;;;4.71;100.00
31681;BME280;18281;51.364;9.566;2023-05-24T00:52:56;100574.66;;;4.83;100.00
31681;BME280;18281;51.364;9.566;2023-05-24T00:55:24;100575.44;;;4.46;100.00
31681;BME280;18281;51.364;9.566;2023-05-24T00:57:51;100581.50;;;4.47;100.00
31681;BME280;18281;51.364;9.566;2023-05-24T01:00:17;100571.34;;;4.75;100.00
31681;BME280;18281;51.364;9.566;2023-05-24T01:02:42;100569.66;;;4.74;100.00
31681;BME280;18281;51.364;9.566;2023-05-24T01:05:07;100568.66;;;4.80;100.00
31681;BME280;18281;51.364;9.566;2023-05-24T01:10:17;100566.88;;;4.41;100.00
31681;BME280;18281;51.364;9.566;2023-05-24T01:15:26;100569.59;;;4.35;100.00
31681;BME280;18281;51.364;9.566;2023-05-24T01:20:40;100566.56;;;4.56;100.00
31681;BME280;18281;51.364;9.566;2023-05-24T01:28:53;100568.56;;;4.44;100.00
31681;BME280;18281;51.364;9.566;2023-05-24T01:31:18;100567.81;;;4.38;100.00
31681;BME280;18281;51.364;9.566;2023-05-24T01:33:44;100572.16;;;4.38;100.00
31681;BME280;18281;51.364;9.566;2023-05-24T01:36:10;100574.78;;;3.93;100.00
31681;BME280;18281;51.364;9.566;2023-05-24T01:38:37;100574.28;;;4.19;100.00
31681;BME280;18281;51.364;9.566;2023-05-24T01:44:25;100572.19;;;4.35;100.00
31681;BME280;18281;51.364;9.566;2023-05-24T01:47:06;100577.53;;;4.29;100.00
31681;BME280;18281;51.364;9.566;2023-05-24T01:49:41;100569.84;;;3.77;100.00
31681;BME280;18281;51.364;9.566;2023-05-24T01:52:12;100569.81;;;3.80;100.00
31681;BME280;18281;51.364;9.566;2023-05-24T01:54:43;100560.84;;;3.97;100.00
31681;BME280;18281;51.364;9.566;2023-05-24T01:57:10;100563.84;;;3.75;100.00
31681;BME280;18281;51.364;9.566;2023-05-24T01:59:38;100577.44;;;3.89;100.00
31681;BME280;18281;51.364;9.566;2023-05-24T02:02:06;100565.78;;;4.09;100.00
31681;BME280;18281;51.364;9.566;2023-05-24T02:04:31;100572.22;;;3.91;100.00
31681;BME280;18281;51.364;9.566;2023-05-24T02:06:57;100566.00;;;3.51;100.00
31681;BME280;18281;51.364;9.566;2023-05-24T02:09:22;100560.56;;;3.65;100.00
31681;BME280;18281;51.364;9.566;2023-05-24T02:11:47;100561.44;;;3.64;100.00
31681;BME280;18281;51.364;9.566;2023-05-24T02:14:13;100556.66;;;3.89;100.00
31681;BME280;18281;51.364;9.566;2023-05-24T02:16:38;100556.69;;;3.86;100.00
31681;BME280;18281;51.364;9.566;2023-05-24T02:19:09;100565.78;;;3.62;100.00
31681;BME280;18281;51.364;9.566;2023-05-24T02:21:35;100557.25;;;3.55;100.00
31681;BME280;18281;51.364;9.566;2023-05-24T02:24:00;100559.47;;;3.77;100.00
31681;BME280;18281;51.364;9.566;2023-05-24T02:26:25;100561.22;;;3.25;100.00
31681;BME280;18281;51.364;9.566;2023-05-24T02:28:51;100555.78;;;3.39;100.00
31681;BME280;18281;51.364;9.566;2023-05-24T02:31:16;100561.03;;;3.36;100.00
31681;BME280;18281;51.364;9.566;2023-05-24T02:33:42;100552.84;;;3.61;100.00
31681;BME280;18281;51.364;9.566;2023-05-24T02:36:08;100554.19;;;3.30;100.00
31681;BME280;18281;51.364;9.566;2023-05-24T02:38:33;100558.78;;;3.14;100.00
31681;BME280;18281;51.364;9.566;2023-05-24T02:40:58;100547.13;;;3.40;100.00
31681;BME280;18281;51.364;9.566;2023-05-24T02:43:24;100541.66;;;3.59;100.00
31681;BME280;18281;51.364;9.566;2023-05-24T02:45:49;100545.78;;;3.16;100.00
31681;BME280;18281;51.364;9.566;2023-05-24T02:48:15;100536.78;;;3.37;100.00
31681;BME280;18281;51.364;9.566;2023-05-24T02:50:40;100542.56;;;3.54;100.00
31681;BME280;18281;51.364;9.566;2023-05-24T02:53:05;100536.53;;;3.54;100.00
31681;BME280;18281;51.364;9.566;2023-05-24T02:55:31;100526.94;;;3.58;100.00
31681;BME280;18281;51.364;9.566;2023-05-24T02:57:56;100533.38;;;3.35;100.00
31681;BME280;18281;51.364;9.566;2023-05-24T03:00:22;100539.72;;;3.15;100.00
31681;BME280;18281;51.364;9.566;2023-05-24T03:02:47;100535.91;;;3.38;100.00
31681;BME280;18281;51.364;9.566;2023-05-24T03:05:15;100541.09;;;3.38;100.00
31681;BME280;18281;51.364;9.566;2023-05-24T03:07:41;100544.28;;;3.01;100.00
31681;BME280;18281;51.364;9.566;2023-05-24T03:10:06;100552.81;;;3.08;100.00
31681;BME280;18281;51.364;9.566;2023-05-24T03:12:32;100540.56;;;3.17;100.00
31681;BME280;18281;51.364;9.566;2023-05-24T03:14:57;100546.16;;;2.91;100.00
31681;BME280;18281;51.364;9.566;2023-05-24T03:17:23;100545.84;;;3.11;100.00
31681;BME280;18281;51.364;9.566;2023-05-24T03:19:48;100543.13;;;3.19;100.00
31681;BME280;18281;51.364;9.566;2023-05-24T03:22:13;100546.63;;;3.16;100.00
31681;BME280;18281;51.364;9.566;2023-05-24T03:24:39;100537.06;;;3.20;100.00
31681;BME280;18281;51.364;9.566;2023-05-24T03:27:05;100547.31;;;3.28;100.00
31681;BME280;18281;51.364;9.566;2023-05-24T03:29:30;100543.00;;;3.28;100.00
31681;BME280;18281;51.364;9.566;2023-05-24T03:31:56;100544.91;;;3.15;100.00
31681;BME280;18281;51.364;9.566;2023-05-24T03:34:22;100553.13;;;2.87;100.00
31681;BME280;18281;51.364;9.566;2023-05-24T03:36:47;100560.94;;;2.86;100.00
31681;BME280;18281;51.364;9.566;2023-05-24T03:39:12;100559.03;;;2.99;100.00
31681;BME280;18281;51.364;9.566;2023-05-24T03:41:38;100554.72;;;2.98;100.00
31681;BME280;18281;51.364;9.566;2023-05-24T03:44:03;100560.66;;;3.04;100.00
31681;BME280;18281;51.364;9.566;2023-05-24T03:46:29;100557.03;;;3.16;100.00
31681;BME280;18281;51.364;9.566;2023-05-24T03:48:54;100559.53;;;3.22;100.00
31681;BME280;18281;51.364;9.566;2023-05-24T03:51:20;100571.00;;;3.06;100.00
31681;BME280;18281;51.364;9.566;2023-05-24T03:53:47;100569.41;;;2.99;100.00
31681;BME280;18281;51.364;9.566;2023-05-24T03:56:13;100574.25;;;3.20;100.00
31681;BME280;18281;51.364;9.566;2023-05-24T03:58:38;100577.84;;;3.10;100.00
31681;BME280;18281;51.364;9.566;2023-05-24T04:01:03;100575.47;;;2.98;100.00
31681;BME280;18281;51.364;9.566;2023-05-24T04:03:29;100578.94;;;2.98;100.00
31681;BME280;18281;51.364;9.566;2023-05-24T04:05:54;100581.56;;;2.94;100.00
31681;BME280;18281;51.364;9.566;2023-05-24T04:08:20;100578.59;;;3.20;100.00
31681;BME280;18281;51.364;9.566;2023-05-24T04:10:45;100577.69;;;3.22;100.00
31681;BME280;18281;51.364;9.566;2023-05-24T04:13:11;100582.84;;;3.24;100.00
31681;BME280;18281;51.364;9.566;2023-05-24T04:15:36;100583.72;;;3.23;100.00
31681;BME280;18281;51.364;9.566;2023-05-24T04:18:02;100592.19;;;3.36;100.00
31681;BME280;18281;51.364;9.566;2023-05-24T04:20:27;100588.72;;;3.35;100.00
31681;BME280;18281;51.364;9.566;2023-05-24T04:22:53;100581.72;;;3.41;100.00
31681;BME280;18281;51.364;9.566;2023-05-24T04:25:20;100584.50;;;3.30;100.00
31681;BME280;18281;51.364;9.566;2023-05-24T04:27:46;100577.34;;;3.44;100.00
31681;BME280;18281;51.364;9.566;2023-05-24T04:30:13;100578.28;;;3.40;100.00
31681;BME280;18281;51.364;9.566;2023-05-24T04:32:40;100573.97;;;3.39;100.00
31681;BME280;18281;51.364;9.566;2023-05-24T04:35:05;100582.41;;;3.53;100.00
31681;BME280;18281;51.364;9.566;2023-05-24T04:37:32;100572.44;;;3.26;100.00
31681;BME280;18281;51.364;9.566;2023-05-24T04:39:57;100580.38;;;3.16;100.00
31681;BME280;18281;51.364;9.566;2023-05-24T04:42:23;100581.09;;;3.25;100.00
31681;BME280;18281;51.364;9.566;2023-05-24T04:44:48;100581.00;;;3.31;100.00
31681;BME280;18281;51.364;9.566;2023-05-24T04:47:14;100581.75;;;3.39;100.00
31681;BME280;18281;51.364;9.566;2023-05-24T04:49:40;100571.88;;;3.63;100.00
31681;BME280;18281;51.364;9.566;2023-05-24T04:52:06;100582.53;;;3.44;100.00
31681;BME280;18281;51.364;9.566;2023-05-24T04:54:32;100582.47;;;3.49;100.00
31681;BME280;18281;51.364;9.566;2023-05-24T04:56:57;100574.19;;;3.77;100.00
31681;BME280;18281;51.364;9.566;2023-05-24T04:59:23;100573.53;;;3.67;100.00
31681;BME280;18281;51.364;9.566;2023-05-24T05:01:48;100580.97;;;3.85;100.00
31681;BME280;18281;51.364;9.566;2023-05-24T05:04:14;100578.63;;;3.71;100.00
31681;BME280;18281;51.364;9.566;2023-05-24T05:06:39;100572.31;;;3.85;100.00
31681;BME280;18281;51.364;9.566;2023-05-24T05:09:08;100577.22;;;4.00;100.00
31681;BME280;18281;51.364;9.566;2023-05-24T05:11:34;100583.94;;;4.11;100.00
31681;BME280;18281;51.364;9.566;2023-05-24T05:14:00;100580.31;;;4.19;100.00
31681;BME280;18281;51.364;9.566;2023-05-24T05:16:25;100573.44;;;4.17;100.00
31681;BME280;18281;51.364;9.566;2023-05-24T05:18:50;100573.06;;;4.35;100.00
31681;BME280;18281;51.364;9.566;2023-05-24T05:21:16;100572.28;;;4.32;100.00
31681;BME280;18281;51.364;9.566;2023-05-24T05:23:41;100574.75;;;4.38;100.00
31681;BME280;18281;51.364;9.566;2023-05-24T05:26:06;100582.47;;;4.41;100.00
31681;BME280;18281;51.364;9.566;2023-05-24T05:28:32;100585.84;;;4.46;100.00
31681;BME280;18281;51.364;9.566;2023-05-24T05:30:58;100593.53;;;4.52;100.00
31681;BME280;18281;51.364;9.566;2023-05-24T05:33:23;100591.75;;;4.54;100.00
31681;BME280;18281;51.364;9.566;2023-05-24T05:35:49;100591.50;;;4.65;100.00
31681;BME280;18281;51.364;9.566;2023-05-24T05:38:14;100591.44;;;4.68;100.00
31681;BME280;18281;51.364;9.566;2023-05-24T05:40:40;100595.63;;;4.76;100.00
31681;BME280;18281;51.364;9.566;2023-05-24T05:43:05;100591.22;;;4.78;100.00
31681;BME280;18281;51.364;9.566;2023-05-24T05:45:32;100595.47;;;4.82;100.00
31681;BME280;18281;51.364;9.566;2023-05-24T05:47:58;100591.88;;;4.89;100.00
31681;BME280;18281;51.364;9.566;2023-05-24T05:50:23;100598.88;;;4.85;100.00
31681;BME280;18281;51.364;9.566;2023-05-24T05:52:48;100597.88;;;4.93;100.00
31681;BME280;18281;51.364;9.566;2023-05-24T05:55:14;100592.50;;;4.99;100.00
31681;BME280;18281;51.364;9.566;2023-05-24T05:57:39;100604.72;;;4.97;100.00
31681;BME280;18281;51.364;9.566;2023-05-24T06:00:05;100603.13;;;4.89;100.00
31681;BME280;18281;51.364;9.566;2023-05-24T06:02:31;100600.63;;;4.85;100.00
31681;BME280;18281;51.364;9.566;2023-05-24T06:04:56;100602.03;;;5.00;100.00
31681;BME280;18281;51.364;9.566;2023-05-24T06:07:21;100607.91;;;5.08;100.00
31681;BME280;18281;51.364;9.566;2023-05-24T06:09:47;100604.38;;;5.11;100.00
31681;BME280;18281;51.364;9.566;2023-05-24T06:12:12;100599.13;;;5.12;100.00
31681;BME280;18281;51.364;9.566;2023-05-24T06:14:37;100602.53;;;5.16;100.00
31681;BME280;18281;51.364;9.566;2023-05-24T06:17:04;100612.25;;;5.81;100.00
31681;BME280;18281;51.364;9.566;2023-05-24T06:19:30;100621.41;;;5.96;100.00
31681;BME280;18281;51.364;9.566;2023-05-24T06:21:56;100617.38;;;5.84;100.00
31681;BME280;18281;51.364;9.566;2023-05-24T06:24:21;100614.25;;;5.70;100.00
31681;BME280;18281;51.364;9.566;2023-05-24T06:26:49;100616.75;;;5.75;100.00
31681;BME280;18281;51.364;9.566;2023-05-24T06:29:15;100617.78;;;5.69;100.00
31681;BME280;18281;51.364;9.566;2023-05-24T06:31:41;100616.91;;;5.68;100.00
31681;BME280;18281;51.364;9.566;2023-05-24T06:34:07;100611.97;;;5.57;100.00
31681;BME280;18281;51.364;9.566;2023-05-24T06:36:32;100616.03;;;5.69;100.00
31681;BME280;18281;51.364;9.566;2023-05-24T06:39:00;100607.31;;;5.70;100.00
31681;BME280;18281;51.364;9.566;2023-05-24T06:41:25;100623.03;;;5.66;100.00
31681;BME280;18281;51.364;9.566;2023-05-24T06:43:51;100623.75;;;5.72;100.00
31681;BME280;18281;51.364;9.566;2023-05-24T06:46:16;100628.06;;;5.73;100.00
31681;BME280;18281;51.364;9.566;2023-05-24T06:48:41;100629.88;;;5.70;100.00
31681;BME280;18281;51.364;9.566;2023-05-24T06:51:07;100634.13;;;5.74;100.00
31681;BME280;18281;51.364;9.566;2023-05-24T06:53:32;100633.97;;;5.80;100.00
31681;BME280;18281;51.364;9.566;2023-05-24T06:55:57;100632.53;;;5.68;100.00
31681;BME280;18281;51.364;9.566;2023-05-24T06:58:23;100634.03;;;5.79;100.00
31681;BME280;18281;51.364;9.566;2023-05-24T07:00:48;100637.28;;;5.87;100.00
31681;BME280;18281;51.364;9.566;2023-05-24T07:03:14;100630.25;;;5.90;100.00
31681;BME280;18281;51.364;9.566;2023-05-24T07:05:40;100637.25;;;5.88;100.00
31681;BME280;18281;51.364;9.566;2023-05-24T07:08:05;100635.38;;;5.94;100.00
31681;BME280;18281;51.364;9.566;2023-05-24T07:10:31;100639.75;;;5.93;100.00
31681;BME280;18281;51.364;9.566;2023-05-24T07:12:56;100641.31;;;5.99;100.00
31681;BME280;18281;51.364;9.566;2023-05-24T07:15:21;100633.84;;;5.85;100.00
31681;BME280;18281;51.364;9.566;2023-05-24T07:17:47;100635.50;;;5.89;100.00
31681;BME280;18281;51.364;9.566;2023-05-24T07:20:12;100638.59;;;6.03;100.00
31681;BME280;18281;51.364;9.566;2023-05-24T07:22:39;100627.13;;;6.11;100.00
31681;BME280;18281;51.364;9.566;2023-05-24T07:25:05;100626.19;;;6.13;100.00
31681;BME280;18281;51.364;9.566;2023-05-24T07:27:30;100619.03;;;6.20;100.00
31681;BME280;18281;51.364;9.566;2023-05-24T07:29:56;100612.78;;;6.26;100.00
31681;BME280;18281;51.364;9.566;2023-05-24T07:32:21;100619.59;;;6.31;100.00
31681;BME280;18281;51.364;9.566;2023-05-24T07:34:47;100615.16;;;6.35;100.00
31681;BME280;18281;51.364;9.566;2023-05-24T07:37:12;100615.72;;;6.45;100.00
31681;BME280;18281;51.364;9.566;2023-05-24T07:39:38;100615.63;;;6.48;100.00
31681;BME280;18281;51.364;9.566;2023-05-24T07:42:05;100607.84;;;6.46;100.00
31681;BME280;18281;51.364;9.566;2023-05-24T07:44:30;100615.91;;;6.38;100.00
31681;BME280;18281;51.364;9.566;2023-05-24T07:46:57;100610.66;;;6.70;100.00
31681;BME280;18281;51.364;9.566;2023-05-24T07:49:23;100621.56;;;6.84;100.00
31681;BME280;18281;51.364;9.566;2023-05-24T07:51:48;100615.47;;;6.54;100.00
31681;BME280;18281;51.364;9.566;2023-05-24T07:54:14;100620.38;;;6.65;100.00
31681;BME280;18281;51.364;9.566;2023-05-24T07:56:42;100629.09;;;6.64;100.00
31681;BME280;18281;51.364;9.566;2023-05-24T07:59:08;100631.50;;;6.71;100.00
31681;BME280;18281;51.364;9.566;2023-05-24T08:01:34;100630.03;;;6.63;100.00
31681;BME280;18281;51.364;9.566;2023-05-24T08:04:00;100632.31;;;6.73;100.00
31681;BME280;18281;51.364;9.566;2023-05-24T08:06:28;100638.69;;;6.63;100.00
31681;BME280;18281;51.364;9.566;2023-05-24T08:08:53;100635.94;;;6.68;100.00
31681;BME280;18281;51.364;9.566;2023-05-24T08:11:19;100634.88;;;6.75;100.00
31681;BME280;18281;51.364;9.566;2023-05-24T08:13:45;100630.75;;;6.98;99.44
31681;BME280;18281;51.364;9.566;2023-05-24T08:16:10;100634.94;;;6.72;97.23
31681;BME280;18281;51.364;9.566;2023-05-24T08:18:36;100633.88;;;7.09;97.39
31681;BME280;18281;51.364;9.566;2023-05-24T08:21:01;100622.56;;;7.37;95.91
31681;BME280;18281;51.364;9.566;2023-05-24T08:23:33;100620.53;;;7.72;93.24
31681;BME280;18281;51.364;9.566;2023-05-24T08:25:58;100614.16;;;7.79;91.28
31681;BME280;18281;51.364;9.566;2023-05-24T08:28:25;100613.31;;;7.79;90.15
31681;BME280;18281;51.364;9.566;2023-05-24T08:30:51;100628.97;;;7.53;90.98
31681;BME280;18281;51.364;9.566;2023-05-24T08:33:16;100624.03;;;7.71;90.71
31681;BME280;18281;51.364;9.566;2023-05-24T08:35:42;100611.56;;;7.79;92.06
31681;BME280;18281;51.364;9.566;2023-05-24T08:38:07;100615.69;;;7.86;91.65
31681;BME280;18281;51.364;9.566;2023-05-24T08:40:33;100614.81;;;8.11;92.24
31681;BME280;18281;51.364;9.566;2023-05-24T08:43:00;100628.66;;;8.15;91.99
31681;BME280;18281;51.364;9.566;2023-05-24T08:45:28;100616.84;;;7.78;88.21
31681;BME280;18281;51.364;9.566;2023-05-24T08:47:55;100624.94;;;7.97;87.73
31681;BME280;18281;51.364;9.566;2023-05-24T08:50:21;100621.69;;;8.14;85.38
31681;BME280;18281;51.364;9.566;2023-05-24T08:52:47;100613.59;;;8.21;84.47
31681;BME280;18281;51.364;9.566;2023-05-24T08:55:13;100616.06;;;8.26;82.75
31681;BME280;18281;51.364;9.566;2023-05-24T08:57:39;100615.88;;;8.31;81.49
31681;BME280;18281;51.364;9.566;2023-05-24T09:00:09;100622.66;;;8.36;82.43
31681;BME280;18281;51.364;9.566;2023-05-24T09:02:37;100618.06;;;8.67;80.25
31681;BME280;18281;51.364;9.566;2023-05-24T09:05:03;100626.63;;;8.94;80.21
31681;BME280;18281;51.364;9.566;2023-05-24T09:07:31;100620.38;;;9.41;95.43
31681;BME280;18281;51.364;9.566;2023-05-24T09:09:59;100612.47;;;9.85;94.48
31681;BME280;18281;51.364;9.566;2023-05-24T09:12:26;100609.22;;;10.20;92.28
31681;BME280;18281;51.364;9.566;2023-05-24T09:14:55;100613.03;;;10.13;84.44
31681;BME280;18281;51.364;9.566;2023-05-24T09:17:21;100608.66;;;9.93;82.04
31681;BME280;18281;51.364;9.566;2023-05-24T09:19:48;100602.38;;;9.97;79.95
31681;BME280;18281;51.364;9.566;2023-05-24T09:22:15;100600.78;;;10.32;78.90
31681;BME280;18281;51.364;9.566;2023-05-24T09:24:50;100589.03;;;10.22;78.27
31681;BME280;18281;51.364;9.566;2023-05-24T09:27:17;100603.97;;;10.20;76.28
31681;BME280;18281;51.364;9.566;2023-05-24T09:29:43;100597.09;;;10.36;76.51
31681;BME280;18281;51.364;9.566;2023-05-24T09:32:14;100592.34;;;9.86;74.63
31681;BME280;18281;51.364;9.566;2023-05-24T09:34:41;100602.47;;;10.14;74.59
31681;BME280;18281;51.364;9.566;2023-05-24T09:37:12;100590.44;;;10.48;75.81
31681;BME280;18281;51.364;9.566;2023-05-24T09:39:40;100600.94;;;10.48;74.50
31681;BME280;18281;51.364;9.566;2023-05-24T09:42:06;100609.56;;;10.12;74.34
31681;BME280;18281;51.364;9.566;2023-05-24T09:44:31;100598.69;;;10.40;74.88
31681;BME280;18281;51.364;9.566;2023-05-24T09:47:03;100593.31;;;10.82;76.51
31681;BME280;18281;51.364;9.566;2023-05-24T09:49:32;100590.69;;;10.82;74.77
31681;BME280;18281;51.364;9.566;2023-05-24T09:52:00;100604.53;;;10.85;71.37
31681;BME280;18281;51.364;9.566;2023-05-24T09:54:26;100595.66;;;10.88;70.98
31681;BME280;18281;51.364;9.566;2023-05-24T09:56:51;100584.88;;;10.94;70.71
31681;BME280;18281;51.364;9.566;2023-05-24T09:59:17;100588.28;;;11.14;72.23
31681;BME280;18281;51.364;9.566;2023-05-24T10:01:43;100594.66;;;11.27;71.56
31681;BME280;18281;51.364;9.566;2023-05-24T10:04:09;100595.56;;;10.89;72.87
31681;BME280;18281;51.364;9.566;2023-05-24T10:06:35;100598.97;;;11.11;73.53
31681;BME280;18281;51.364;9.566;2023-05-24T10:09:04;100593.53;;;11.14;74.33
31681;BME280;18281;51.364;9.566;2023-05-24T10:11:35;100599.94;;;11.08;71.67
31681;BME280;18281;51.364;9.566;2023-05-24T10:14:04;100600.13;;;11.22;73.91
31681;BME280;18281;51.364;9.566;2023-05-24T10:16:33;100597.69;;;11.37;74.56
31681;BME280;18281;51.364;9.566;2023-05-24T10:18:58;100596.28;;;11.47;74.31
31681;BME280;18281;51.364;9.566;2023-05-24T10:21:25;100590.66;;;11.55;75.17
31681;BME280;18281;51.364;9.566;2023-05-24T10:23:56;100588.84;;;11.55;71.85
31681;BME280;18281;51.364;9.566;2023-05-24T10:26:23;100580.84;;;11.58;71.49
31681;BME280;18281;51.364;9.566;2023-05-24T10:28:54;100580.13;;;11.90;72.42
31681;BME280;18281;51.364;9.566;2023-05-24T10:31:24;100574.06;;;12.05;73.09
31681;BME280;18281;51.364;9.566;2023-05-24T10:33:52;100584.53;;;11.89;70.24
31681;BME280;18281;51.364;9.566;2023-05-24T10:36:20;100584.81;;;11.83;71.32
31681;BME280;18281;51.364;9.566;2023-05-24T10:38:47;100585.00;;;11.98;72.94
31681;BME280;18281;51.364;9.566;2023-05-24T10:41:12;100590.03;;;11.67;68.90
31681;BME280;18281;51.364;9.566;2023-05-24T10:43:38;100582.03;;;11.86;72.87
31681;BME280;18281;51.364;9.566;2023-05-24T10:46:06;100578.88;;;11.97;74.03
31681;BME280;18281;51.364;9.566;2023-05-24T10:48:36;100588.38;;;12.00;74.85
31681;BME280;18281;51.364;9.566;2023-05-24T10:51:30;100579.59;;;12.17;74.74
31681;BME280;18281;51.364;9.566;2023-05-24T10:53:57;100573.63;;;12.13;74.33
31681;BME280;18281;51.364;9.566;2023-05-24T10:56:22;100579.19;;;12.24;74.89
31681;BME280;18281;51.364;9.566;2023-05-24T11:01:26;100571.47;;;12.53;75.10
31681;BME280;18281;51.364;9.566;2023-05-24T11:03:52;100580.34;;;12.68;75.11
31681;BME280;18281;51.364;9.566;2023-05-24T11:06:17;100580.09;;;12.73;74.79
31681;BME280;18281;51.364;9.566;2023-05-24T11:08:44;100585.13;;;12.78;74.29
31681;BME280;18281;51.364;9.566;2023-05-24T11:11:12;100586.69;;;12.80;74.40
31681;BME280;18281;51.364;9.566;2023-05-24T11:13:38;100588.25;;;12.68;71.63
31681;BME280;18281;51.364;9.566;2023-05-24T11:16:07;100583.38;;;12.45;70.79
31681;BME280;18281;51.364;9.566;2023-05-24T11:18:32;100590.19;;;12.49;70.80
31681;BME280;18281;51.364;9.566;2023-05-24T11:21:03;100583.63;;;12.56;71.45
31681;BME280;18281;51.364;9.566;2023-05-24T11:23:30;100596.47;;;12.46;69.65
31681;BME280;18281;51.364;9.566;2023-05-24T11:25:56;100586.84;;;12.45;69.37
31681;BME280;18281;51.364;9.566;2023-05-24T11:28:21;100597.66;;;12.40;70.10
31681;BME280;18281;51.364;9.566;2023-05-24T11:30:47;100593.25;;;12.07;70.04
31681;BME280;18281;51.364;9.566;2023-05-24T11:33:17;100603.22;;;12.18;71.25
31681;BME280;18281;51.364;9.566;2023-05-24T11:35:47;100599.78;;;12.34;72.02
31681;BME280;18281;51.364;9.566;2023-05-24T11:38:13;100607.78;;;12.48;73.97
31681;BME280;18281;51.364;9.566;2023-05-24T11:40:41;100602.75;;;12.59;74.75
31681;BME280;18281;51.364;9.566;2023-05-24T11:43:09;100609.84;;;12.59;74.62
31681;BME280;18281;51.364;9.566;2023-05-24T11:45:35;100604.13;;;12.67;75.78
31681;BME280;18281;51.364;9.566;2023-05-24T11:48:04;100606.44;;;12.73;76.24
31681;BME280;18281;51.364;9.566;2023-05-24T11:50:30;100611.28;;;12.81;76.50
31681;BME280;18281;51.364;9.566;2023-05-24T11:53:01;100609.34;;;12.84;76.49
31681;BME280;18281;51.364;9.566;2023-05-24T11:55:27;100611.69;;;12.89;76.44
31681;BME280;18281;51.364;9.566;2023-05-24T11:57:57;100602.97;;;12.88;76.59
31681;BME280;18281;51.364;9.566;2023-05-24T12:00:26;100610.69;;;12.91;75.96
31681;BME280;18281;51.364;9.566;2023-05-24T12:02:55;100613.16;;;12.95;75.60
31681;BME280;18281;51.364;9.566;2023-05-24T12:05:21;100613.16;;;12.95;74.53
31681;BME280;18281;51.364;9.566;2023-05-24T12:07:46;100608.31;;;13.03;76.67
31681;BME280;18281;51.364;9.566;2023-05-24T12:10:14;100596.31;;;13.13;77.14
31681;BME280;18281;51.364;9.566;2023-05-24T12:12:43;100598.22;;;13.11;76.69
31681;BME280;18281;51.364;9.566;2023-05-24T12:15:09;100599.44;;;13.20;76.64
31681;BME280;18281;51.364;9.566;2023-05-24T12:17:36;100596.31;;;13.13;74.37
31681;BME280;18281;51.364;9.566;2023-05-24T12:20:02;100595.97;;;13.19;76.58
31681;BME280;18281;51.364;9.566;2023-05-24T12:22:28;100596.56;;;13.24;75.38
31681;BME280;18281;51.364;9.566;2023-05-24T12:24:55;100597.84;;;13.48;76.41
31681;BME280;18281;51.364;9.566;2023-05-24T12:27:25;100596.06;;;13.48;76.75
31681;BME280;18281;51.364;9.566;2023-05-24T12:29:51;100599.41;;;13.36;74.82
31681;BME280;18281;51.364;9.566;2023-05-24T12:32:16;100597.09;;;13.46;76.09
31681;BME280;18281;51.364;9.566;2023-05-24T12:34:42;100589.16;;;13.46;75.11
31681;BME280;18281;51.364;9.566;2023-05-24T12:37:08;100588.16;;;13.48;74.44
31681;BME280;18281;51.364;9.566;2023-05-24T12:39:35;100592.94;;;13.41;73.21
31681;BME280;18281;51.364;9.566;2023-05-24T12:42:02;100587.34;;;13.32;73.90
31681;BME280;18281;51.364;9.566;2023-05-24T12:44:36;100583.88;;;13.31;72.67
31681;BME280;18281;51.364;9.566;2023-05-24T12:47:04;100586.81;;;13.41;75.67
31681;BME280;18281;51.364;9.566;2023-05-24T12:49:30;100588.53;;;13.42;75.61
31681;BME280;18281;51.364;9.566;2023-05-24T12:51:56;100582.88;;;13.48;75.85
31681;BME280;18281;51.364;9.566;2023-05-24T12:54:23;100582.91;;;13.63;76.69
31681;BME280;18281;51.364;9.566;2023-05-24T12:56:49;100571.06;;;13.84;76.14
31681;BME280;18281;51.364;9.566;2023-05-24T12:59:15;100574.78;;;13.96;76.30
31681;BME280;18281;51.364;9.566;2023-05-24T13:01:41;100581.28;;;13.90;75.63
31681;BME280;18281;51.364;9.566;2023-05-24T13:04:06;100580.69;;;13.85;75.78
31681;BME280;18281;51.364;9.566;2023-05-24T13:06:32;100577.13;;;13.86;75.71